sensor_id;sensor_type;location;lat;lon;timestamp;temperature;humidity
14359;DHT22;7263;49.418;11.064;2024-02-14T00:02:00;1.40;99.90
14359;DHT22;7263;49.418;11.064;2024-02-14T00:04:38;1.40;99.90
14359;DHT22;7263;49.418;11.064;2024-02-14T00:07:05;1.40;99.90
14359;DHT22;7263;49.418;11.064;2024-02-14T00:09:32;1.30;99.90
14359;DHT22;7263;49.418;11.064;2024-02-14T00:12:01;1.30;99.90
14359;DHT22;7263;49.418;11.064;2024-02-14T00:14:31;1.20;99.90
14359;DHT22;7263;49.418;11.064;2024-02-14T00:16:58;1.20;99.90
14359;DHT22;7263;49.418;11.064;2024-02-14T00:19:25;1.20;99.90
14359;DHT22;7263;49.418;11.064;2024-02-14T00:21:58;1.10;99.90
14359;DHT22;7263;49.418;11.064;2024-02-14T00:24:30;1.10;99.90
14359;DHT22;7263;49.418;11.064;2024-02-14T00:26:57;1.10;99.90
14359;DHT22;7263;49.418;11.064;2024-02-14T00:29:26;1.10;99.90
14359;DHT22;7263;49.418;11.064;2024-02-14T00:31:57;1.00;99.90
14359;DHT22;7263;49.418;11.064;2024-02-14T00:34:25;1.00;99.90
14359;DHT22;7263;49.418;11.064;2024-02-14T00:37:03;0.90;99.90
14359;DHT22;7263;49.418;11.064;2024-02-14T00:39:35;0.90;99.90
14359;DHT22;7263;49.418;11.064;2024-02-14T00:42:13;0.80;99.90
14359;DHT22;7263;49.418;11.064;2024-02-14T00:44:48;0.80;99.90
14359;DHT22;7263;49.418;11.064;2024-02-14T00:47:15;0.80;99.90
14359;DHT22;7263;49.418;11.064;2024-02-14T00:49:41;0.70;99.90
14359;DHT22;7263;49.418;11.064;2024-02-14T00:52:10;0.70;99.90
14359;DHT22;7263;49.418;11.064;2024-02-14T00:54:36;0.70;99.90
14359;DHT22;7263;49.418;11.064;2024-02-14T00:57:06;0.70;99.90
14359;DHT22;7263;49.418;11.064;2024-02-14T00:59:33;0.60;99.90
14359;DHT22;7263;49.418;11.064;2024-02-14T01:02:00;0.60;99.90
14359;DHT22;7263;49.418;11.064;2024-02-14T01:04:27;0.60;99.90
14359;DHT22;7263;49.418;11.064;2024-02-14T01:06:53;0.60;99.90
14359;DHT22;7263;49.418;11.064;2024-02-14T01:09:33;0.70;99.90
14359;DHT22;7263;49.418;11.064;2024-02-14T01:12:04;0.70;99.90
14359;DHT22;7263;49.418;11.064;2024-02-14T01:14:31;0.70;99.90
14359;DHT22;7263;49.418;11.064;2024-02-14T01:17:00;0.70;99.90
14359;DHT22;7263;49.418;11.064;2024-02-14T01:19:29;0.70;99.90
14359;DHT22;7263;49.418;11.064;2024-02-14T01:21:59;0.80;99.90
14359;DHT22;7263;49.418;11.064;2024-02-14T01:24:31;0.90;99.90
14359;DHT22;7263;49.418;11.064;2024-02-14T01:27:03;1.00;99.90
14359;DHT22;7263;49.418;11.064;2024-02-14T01:29:38;1.10;99.90
14359;DHT22;7263;49.418;11.064;2024-02-14T01:32:05;1.10;99.90
14359;DHT22;7263;49.418;11.064;2024-02-14T01:34:32;1.20;99.90
14359;DHT22;7263;49.418;11.064;2024-02-14T01:37:05;1.20;99.90
14359;DHT22;7263;49.418;11.064;2024-02-14T01:39:33;1.20;99.90
14359;DHT22;7263;49.418;11.064;2024-02-14T01:42:03;1.30;99.90
14359;DHT22;7263;49.418;11.064;2024-02-14T01:44:33;1.40;99.90
14359;DHT22;7263;49.418;11.064;2024-02-14T01:47:03;1.40;99.90
14359;DHT22;7263;49.418;11.064;2024-02-14T01:49:35;1.40;99.90
14359;DHT22;7263;49.418;11.064;2024-02-14T01:52:10;1.50;99.90
14359;DHT22;7263;49.418;11.064;2024-02-14T01:54:38;1.50;99.90
14359;DHT22;7263;49.418;11.064;2024-02-14T01:57:05;1.50;99.90
14359;DHT22;7263;49.418;11.064;2024-02-14T01:59:41;1.50;99.90
14359;DHT22;7263;49.418;11.064;2024-02-14T02:02:10;1.50;99.90
14359;DHT22;7263;49.418;11.064;2024-02-14T02:04:43;1.50;99.90
14359;DHT22;7263;49.418;11.064;2024-02-14T02:07:15;1.50;99.90
14359;DHT22;7263;49.418;11.064;2024-02-14T02:09:46;1.40;99.90
14359;DHT22;7263;49.418;11.064;2024-02-14T02:12:15;1.40;99.90
14359;DHT22;7263;49.418;11.064;2024-02-14T02:14:45;1.40;99.90
14359;DHT22;7263;49.418;11.064;2024-02-14T02:17:12;1.40;99.90
14359;DHT22;7263;49.418;11.064;2024-02-14T02:19:39;1.40;99.90
14359;DHT22;7263;49.418;11.064;2024-02-14T02:22:11;1.40;99.90
14359;DHT22;7263;49.418;11.064;2024-02-14T02:24:39;1.40;99.90
14359;DHT22;7263;49.418;11.064;2024-02-14T02:27:06;1.50;99.90
14359;DHT22;7263;49.418;11.064;2024-02-14T02:29:35;1.50;99.90
14359;DHT22;7263;49.418;11.064;2024-02-14T02:32:03;1.50;99.90
14359;DHT22;7263;49.418;11.064;2024-02-14T02:34:31;1.60;99.90
14359;DHT22;7263;49.418;11.064;2024-02-14T02:36:58;1.60;99.90
14359;DHT22;7263;49.418;11.064;2024-02-14T02:39:34;1.60;99.90
14359;DHT22;7263;49.418;11.064;2024-02-14T02:42:03;1.60;99.90
14359;DHT22;7263;49.418;11.064;2024-02-14T02:44:33;1.60;99.90
14359;DHT22;7263;49.418;11.064;2024-02-14T02:47:14;1.60;99.90
14359;DHT22;7263;49.418;11.064;2024-02-14T02:49:44;1.70;99.90
14359;DHT22;7263;49.418;11.064;2024-02-14T02:52:17;1.70;99.90
14359;DHT22;7263;49.418;11.064;2024-02-14T02:54:44;1.70;99.90
14359;DHT22;7263;49.418;11.064;2024-02-14T02:57:14;1.70;99.90
14359;DHT22;7263;49.418;11.064;2024-02-14T02:59:40;1.60;99.90
14359;DHT22;7263;49.418;11.064;2024-02-14T03:02:09;1.70;99.90
14359;DHT22;7263;49.418;11.064;2024-02-14T03:04:46;1.70;99.90
14359;DHT22;7263;49.418;11.064;2024-02-14T03:07:13;1.70;99.90
14359;DHT22;7263;49.418;11.064;2024-02-14T03:09:40;1.70;99.90
14359;DHT22;7263;49.418;11.064;2024-02-14T03:12:14;1.80;99.90
14359;DHT22;7263;49.418;11.064;2024-02-14T03:14:53;1.80;99.90
14359;DHT22;7263;49.418;11.064;2024-02-14T03:17:20;1.80;99.90
14359;DHT22;7263;49.418;11.064;2024-02-14T03:19:49;1.80;99.90
14359;DHT22;7263;49.418;11.064;2024-02-14T03:22:27;1.80;99.90
14359;DHT22;7263;49.418;11.064;2024-02-14T03:24:59;1.80;99.90
14359;DHT22;7263;49.418;11.064;2024-02-14T03:27:32;1.80;99.90
14359;DHT22;7263;49.418;11.064;2024-02-14T03:30:09;1.90;99.90
14359;DHT22;7263;49.418;11.064;2024-02-14T03:32:35;1.90;99.90
14359;DHT22;7263;49.418;11.064;2024-02-14T03:35:03;1.90;99.90
14359;DHT22;7263;49.418;11.064;2024-02-14T03:37:41;1.90;99.90
14359;DHT22;7263;49.418;11.064;2024-02-14T03:40:12;1.90;99.90
14359;DHT22;7263;49.418;11.064;2024-02-14T03:42:40;1.90;99.90
14359;DHT22;7263;49.418;11.064;2024-02-14T03:45:08;1.90;99.90
14359;DHT22;7263;49.418;11.064;2024-02-14T03:47:40;1.80;99.90
14359;DHT22;7263;49.418;11.064;2024-02-14T03:50:08;1.80;99.90
14359;DHT22;7263;49.418;11.064;2024-02-14T03:52:37;1.70;99.90
14359;DHT22;7263;49.418;11.064;2024-02-14T03:55:08;1.70;99.90
14359;DHT22;7263;49.418;11.064;2024-02-14T03:57:43;1.70;99.90
14359;DHT22;7263;49.418;11.064;2024-02-14T04:00:26;1.60;99.90
14359;DHT22;7263;49.418;11.064;2024-02-14T04:05:40;1.50;99.90
14359;DHT22;7263;49.418;11.064;2024-02-14T04:08:07;1.50;99.90
14359;DHT22;7263;49.418;11.064;2024-02-14T04:10:39;1.60;99.90
14359;DHT22;7263;49.418;11.064;2024-02-14T04:13:16;1.50;99.90
14359;DHT22;7263;49.418;11.064;2024-02-14T04:15:43;1.50;99.90
14359;DHT22;7263;49.418;11.064;2024-02-14T04:18:09;1.50;99.90
14359;DHT22;7263;49.418;11.064;2024-02-14T04:20:36;1.50;99.90
14359;DHT22;7263;49.418;11.064;2024-02-14T04:23:09;1.60;99.90
14359;DHT22;7263;49.418;11.064;2024-02-14T04:25:41;1.50;99.90
14359;DHT22;7263;49.418;11.064;2024-02-14T04:28:08;1.70;99.90
14359;DHT22;7263;49.418;11.064;2024-02-14T04:30:41;1.70;99.90
14359;DHT22;7263;49.418;11.064;2024-02-14T04:33:11;1.80;99.90
14359;DHT22;7263;49.418;11.064;2024-02-14T04:35:39;1.90;99.90
14359;DHT22;7263;49.418;11.064;2024-02-14T04:38:06;2.00;99.90
14359;DHT22;7263;49.418;11.064;2024-02-14T04:40:36;2.10;99.90
14359;DHT22;7263;49.418;11.064;2024-02-14T04:43:05;2.10;99.90
14359;DHT22;7263;49.418;11.064;2024-02-14T04:45:35;2.20;99.90
14359;DHT22;7263;49.418;11.064;2024-02-14T04:48:08;2.20;99.90
14359;DHT22;7263;49.418;11.064;2024-02-14T04:50:38;2.30;99.90
14359;DHT22;7263;49.418;11.064;2024-02-14T04:53:05;2.30;99.90
14359;DHT22;7263;49.418;11.064;2024-02-14T04:55:35;2.40;99.90
14359;DHT22;7263;49.418;11.064;2024-02-14T04:58:11;2.40;99.90
14359;DHT22;7263;49.418;11.064;2024-02-14T05:00:38;2.50;99.90
14359;DHT22;7263;49.418;11.064;2024-02-14T05:03:15;2.50;99.90
14359;DHT22;7263;49.418;11.064;2024-02-14T05:05:43;2.50;99.90
14359;DHT22;7263;49.418;11.064;2024-02-14T05:08:09;2.60;99.90
14359;DHT22;7263;49.418;11.064;2024-02-14T05:10:38;2.60;99.90
14359;DHT22;7263;49.418;11.064;2024-02-14T05:13:08;2.60;99.90
14359;DHT22;7263;49.418;11.064;2024-02-14T05:15:34;2.60;99.90
14359;DHT22;7263;49.418;11.064;2024-02-14T05:18:04;2.70;99.90
14359;DHT22;7263;49.418;11.064;2024-02-14T05:20:33;2.70;99.90
14359;DHT22;7263;49.418;11.064;2024-02-14T05:23:00;2.80;99.90
14359;DHT22;7263;49.418;11.064;2024-02-14T05:25:28;2.70;99.90
14359;DHT22;7263;49.418;11.064;2024-02-14T05:28:04;2.70;99.90
14359;DHT22;7263;49.418;11.064;2024-02-14T05:30:31;2.80;99.90
14359;DHT22;7263;49.418;11.064;2024-02-14T05:33:02;2.80;99.90
14359;DHT22;7263;49.418;11.064;2024-02-14T05:35:28;2.80;99.90
14359;DHT22;7263;49.418;11.064;2024-02-14T05:38:02;2.80;99.90
14359;DHT22;7263;49.418;11.064;2024-02-14T05:40:31;2.80;99.90
14359;DHT22;7263;49.418;11.064;2024-02-14T05:42:59;2.80;99.90
14359;DHT22;7263;49.418;11.064;2024-02-14T05:45:32;2.90;99.90
14359;DHT22;7263;49.418;11.064;2024-02-14T05:48:02;2.90;99.90
14359;DHT22;7263;49.418;11.064;2024-02-14T05:50:34;2.80;99.90
14359;DHT22;7263;49.418;11.064;2024-02-14T05:53:06;2.80;99.90
14359;DHT22;7263;49.418;11.064;2024-02-14T05:55:35;2.80;99.90
14359;DHT22;7263;49.418;11.064;2024-02-14T05:58:10;2.80;99.90
14359;DHT22;7263;49.418;11.064;2024-02-14T06:00:38;2.80;99.90
14359;DHT22;7263;49.418;11.064;2024-02-14T06:03:07;2.80;99.90
14359;DHT22;7263;49.418;11.064;2024-02-14T06:05:34;2.80;99.90
14359;DHT22;7263;49.418;11.064;2024-02-14T06:08:01;2.80;99.90
14359;DHT22;7263;49.418;11.064;2024-02-14T06:10:37;2.80;99.90
14359;DHT22;7263;49.418;11.064;2024-02-14T06:13:08;2.80;99.90
14359;DHT22;7263;49.418;11.064;2024-02-14T06:15:38;2.80;99.90
14359;DHT22;7263;49.418;11.064;2024-02-14T06:18:05;2.90;99.90
14359;DHT22;7263;49.418;11.064;2024-02-14T06:20:34;2.90;99.90
14359;DHT22;7263;49.418;11.064;2024-02-14T06:23:03;2.90;99.90
14359;DHT22;7263;49.418;11.064;2024-02-14T06:25:35;3.00;99.90
14359;DHT22;7263;49.418;11.064;2024-02-14T06:28:02;3.10;99.90
14359;DHT22;7263;49.418;11.064;2024-02-14T06:30:29;3.10;99.90
14359;DHT22;7263;49.418;11.064;2024-02-14T06:32:56;3.10;99.90
14359;DHT22;7263;49.418;11.064;2024-02-14T06:35:29;3.20;99.90
14359;DHT22;7263;49.418;11.064;2024-02-14T06:40:40;3.30;99.90
14359;DHT22;7263;49.418;11.064;2024-02-14T06:43:08;3.40;99.90
14359;DHT22;7263;49.418;11.064;2024-02-14T06:45:38;3.40;99.90
14359;DHT22;7263;49.418;11.064;2024-02-14T06:48:07;3.50;99.90
14359;DHT22;7263;49.418;11.064;2024-02-14T06:50:33;3.50;99.90
14359;DHT22;7263;49.418;11.064;2024-02-14T06:53:02;3.50;99.90
14359;DHT22;7263;49.418;11.064;2024-02-14T06:55:34;3.60;99.90
14359;DHT22;7263;49.418;11.064;2024-02-14T06:58:03;3.60;99.90
14359;DHT22;7263;49.418;11.064;2024-02-14T07:00:35;3.60;99.90
14359;DHT22;7263;49.418;11.064;2024-02-14T07:03:07;3.70;99.90
14359;DHT22;7263;49.418;11.064;2024-02-14T07:05:34;3.80;99.90
14359;DHT22;7263;49.418;11.064;2024-02-14T07:08:01;3.90;99.90
14359;DHT22;7263;49.418;11.064;2024-02-14T07:10:31;3.90;99.90
14359;DHT22;7263;49.418;11.064;2024-02-14T07:12:58;3.90;99.90
14359;DHT22;7263;49.418;11.064;2024-02-14T07:15:29;4.00;99.90
14359;DHT22;7263;49.418;11.064;2024-02-14T07:17:56;4.10;99.90
14359;DHT22;7263;49.418;11.064;2024-02-14T07:20:24;4.20;99.90
14359;DHT22;7263;49.418;11.064;2024-02-14T07:22:55;4.20;99.90
14359;DHT22;7263;49.418;11.064;2024-02-14T07:25:24;4.40;99.90
14359;DHT22;7263;49.418;11.064;2024-02-14T07:27:51;4.50;99.90
14359;DHT22;7263;49.418;11.064;2024-02-14T07:30:23;4.60;99.90
14359;DHT22;7263;49.418;11.064;2024-02-14T07:32:54;4.70;99.90
14359;DHT22;7263;49.418;11.064;2024-02-14T07:35:21;4.80;99.90
14359;DHT22;7263;49.418;11.064;2024-02-14T07:37:50;4.90;99.90
14359;DHT22;7263;49.418;11.064;2024-02-14T07:40:22;4.80;99.90
14359;DHT22;7263;49.418;11.064;2024-02-14T07:42:52;4.90;99.90
14359;DHT22;7263;49.418;11.064;2024-02-14T07:45:22;5.00;99.90
14359;DHT22;7263;49.418;11.064;2024-02-14T07:47:53;5.10;99.90
14359;DHT22;7263;49.418;11.064;2024-02-14T07:50:29;5.20;99.90
14359;DHT22;7263;49.418;11.064;2024-02-14T07:52:56;5.40;99.90
14359;DHT22;7263;49.418;11.064;2024-02-14T07:55:25;5.50;99.90
14359;DHT22;7263;49.418;11.064;2024-02-14T07:57:52;5.60;99.90
14359;DHT22;7263;49.418;11.064;2024-02-14T08:00:19;5.70;99.90
14359;DHT22;7263;49.418;11.064;2024-02-14T08:03:04;5.70;99.90
14359;DHT22;7263;49.418;11.064;2024-02-14T08:05:37;5.80;99.90
14359;DHT22;7263;49.418;11.064;2024-02-14T08:08:04;5.90;99.90
14359;DHT22;7263;49.418;11.064;2024-02-14T08:10:31;5.90;99.90
14359;DHT22;7263;49.418;11.064;2024-02-14T08:12:58;5.90;99.90
14359;DHT22;7263;49.418;11.064;2024-02-14T08:15:25;6.00;99.90
14359;DHT22;7263;49.418;11.064;2024-02-14T08:17:54;6.00;99.90
14359;DHT22;7263;49.418;11.064;2024-02-14T08:20:23;6.00;99.90
14359;DHT22;7263;49.418;11.064;2024-02-14T08:22:52;6.10;99.90
14359;DHT22;7263;49.418;11.064;2024-02-14T08:25:22;6.10;99.90
14359;DHT22;7263;49.418;11.064;2024-02-14T08:27:52;6.10;99.90
14359;DHT22;7263;49.418;11.064;2024-02-14T08:30:20;6.20;99.90
14359;DHT22;7263;49.418;11.064;2024-02-14T08:32:53;6.20;99.90
14359;DHT22;7263;49.418;11.064;2024-02-14T08:35:33;6.20;99.90
14359;DHT22;7263;49.418;11.064;2024-02-14T08:38:00;6.10;99.90
14359;DHT22;7263;49.418;11.064;2024-02-14T08:40:27;6.10;99.90
14359;DHT22;7263;49.418;11.064;2024-02-14T08:42:57;6.10;99.90
14359;DHT22;7263;49.418;11.064;2024-02-14T08:45:27;6.10;99.90
14359;DHT22;7263;49.418;11.064;2024-02-14T08:47:58;6.10;99.90
14359;DHT22;7263;49.418;11.064;2024-02-14T08:50:35;6.10;99.90
14359;DHT22;7263;49.418;11.064;2024-02-14T08:53:02;6.10;99.90
14359;DHT22;7263;49.418;11.064;2024-02-14T08:55:32;6.10;99.90
14359;DHT22;7263;49.418;11.064;2024-02-14T08:58:00;6.20;99.90
14359;DHT22;7263;49.418;11.064;2024-02-14T09:00:35;6.20;99.90
14359;DHT22;7263;49.418;11.064;2024-02-14T09:03:03;6.40;99.90
14359;DHT22;7263;49.418;11.064;2024-02-14T09:05:42;6.40;99.90
14359;DHT22;7263;49.418;11.064;2024-02-14T09:08:20;6.40;99.90
14359;DHT22;7263;49.418;11.064;2024-02-14T09:10:58;6.40;99.90
14359;DHT22;7263;49.418;11.064;2024-02-14T09:13:33;6.50;99.90
14359;DHT22;7263;49.418;11.064;2024-02-14T09:16:03;6.60;99.90
14359;DHT22;7263;49.418;11.064;2024-02-14T09:18:31;6.80;99.90
14359;DHT22;7263;49.418;11.064;2024-02-14T09:21:11;6.90;99.90
14359;DHT22;7263;49.418;11.064;2024-02-14T09:23:41;7.00;99.90
14359;DHT22;7263;49.418;11.064;2024-02-14T09:26:13;7.20;99.90
14359;DHT22;7263;49.418;11.064;2024-02-14T09:28:42;7.20;99.90
14359;DHT22;7263;49.418;11.064;2024-02-14T09:31:08;7.30;99.90
14359;DHT22;7263;49.418;11.064;2024-02-14T09:33:39;7.40;99.90
14359;DHT22;7263;49.418;11.064;2024-02-14T09:36:08;7.60;99.90
14359;DHT22;7263;49.418;11.064;2024-02-14T09:38:34;7.80;99.90
14359;DHT22;7263;49.418;11.064;2024-02-14T09:41:09;8.00;99.90
14359;DHT22;7263;49.418;11.064;2024-02-14T09:43:44;8.00;99.90
14359;DHT22;7263;49.418;11.064;2024-02-14T09:46:13;7.90;99.90
14359;DHT22;7263;49.418;11.064;2024-02-14T09:48:48;7.90;99.90
14359;DHT22;7263;49.418;11.064;2024-02-14T09:51:16;7.90;99.90
14359;DHT22;7263;49.418;11.064;2024-02-14T09:53:44;7.90;99.90
14359;DHT22;7263;49.418;11.064;2024-02-14T09:56:29;7.90;99.90
14359;DHT22;7263;49.418;11.064;2024-02-14T09:58:56;8.00;99.90
14359;DHT22;7263;49.418;11.064;2024-02-14T10:01:33;8.10;99.90
14359;DHT22;7263;49.418;11.064;2024-02-14T10:04:11;8.10;99.90
14359;DHT22;7263;49.418;11.064;2024-02-14T10:06:51;8.10;99.90
14359;DHT22;7263;49.418;11.064;2024-02-14T10:09:25;8.10;99.90
14359;DHT22;7263;49.418;11.064;2024-02-14T10:11:55;8.20;99.90
14359;DHT22;7263;49.418;11.064;2024-02-14T10:14:23;8.20;99.90
14359;DHT22;7263;49.418;11.064;2024-02-14T10:16:59;8.30;99.90
14359;DHT22;7263;49.418;11.064;2024-02-14T10:19:26;8.40;99.90
14359;DHT22;7263;49.418;11.064;2024-02-14T10:22:06;8.60;99.90
14359;DHT22;7263;49.418;11.064;2024-02-14T10:24:36;8.80;99.90
14359;DHT22;7263;49.418;11.064;2024-02-14T10:27:11;9.00;99.90
14359;DHT22;7263;49.418;11.064;2024-02-14T10:29:40;9.20;99.90
14359;DHT22;7263;49.418;11.064;2024-02-14T10:32:07;9.30;99.90
14359;DHT22;7263;49.418;11.064;2024-02-14T10:34:39;9.40;99.90
14359;DHT22;7263;49.418;11.064;2024-02-14T10:37:09;9.60;99.90
14359;DHT22;7263;49.418;11.064;2024-02-14T10:39:41;9.80;99.90
14359;DHT22;7263;49.418;11.064;2024-02-14T10:42:21;10.10;99.90
14359;DHT22;7263;49.418;11.064;2024-02-14T10:44:51;7.00;99.90
14359;DHT22;7263;49.418;11.064;2024-02-14T10:47:19;10.60;99.90
14359;DHT22;7263;49.418;11.064;2024-02-14T10:49:48;11.20;99.90
14359;DHT22;7263;49.418;11.064;2024-02-14T10:52:18;11.60;99.90
14359;DHT22;7263;49.418;11.064;2024-02-14T10:54:51;11.80;99.90
14359;DHT22;7263;49.418;11.064;2024-02-14T10:57:21;11.50;99.90
14359;DHT22;7263;49.418;11.064;2024-02-14T10:59:48;11.40;99.90
14359;DHT22;7263;49.418;11.064;2024-02-14T11:02:16;11.10;99.90
14359;DHT22;7263;49.418;11.064;2024-02-14T11:04:43;10.90;99.90
14359;DHT22;7263;49.418;11.064;2024-02-14T11:07:16;10.60;99.90
14359;DHT22;7263;49.418;11.064;2024-02-14T11:09:47;10.60;99.90
14359;DHT22;7263;49.418;11.064;2024-02-14T11:12:22;10.50;99.90
14359;DHT22;7263;49.418;11.064;2024-02-14T11:14:57;10.50;99.90
14359;DHT22;7263;49.418;11.064;2024-02-14T11:17:26;10.60;99.90
14359;DHT22;7263;49.418;11.064;2024-02-14T11:19:59;10.60;99.90
14359;DHT22;7263;49.418;11.064;2024-02-14T11:22:52;10.70;99.90
14359;DHT22;7263;49.418;11.064;2024-02-14T11:25:28;10.90;99.90
14359;DHT22;7263;49.418;11.064;2024-02-14T11:28:12;11.10;99.90
14359;DHT22;7263;49.418;11.064;2024-02-14T11:30:40;11.20;99.90
14359;DHT22;7263;49.418;11.064;2024-02-14T11:33:18;11.30;99.90
14359;DHT22;7263;49.418;11.064;2024-02-14T11:35:48;11.50;99.90
14359;DHT22;7263;49.418;11.064;2024-02-14T11:38:22;11.70;99.90
14359;DHT22;7263;49.418;11.064;2024-02-14T11:40:58;11.80;99.90
14359;DHT22;7263;49.418;11.064;2024-02-14T11:43:29;11.90;99.90
14359;DHT22;7263;49.418;11.064;2024-02-14T11:45:59;12.00;99.90
14359;DHT22;7263;49.418;11.064;2024-02-14T11:48:31;12.30;99.90
14359;DHT22;7263;49.418;11.064;2024-02-14T11:51:01;12.50;99.90
14359;DHT22;7263;49.418;11.064;2024-02-14T11:53:31;12.70;99.90
14359;DHT22;7263;49.418;11.064;2024-02-14T11:56:08;12.90;99.90
14359;DHT22;7263;49.418;11.064;2024-02-14T11:58:35;13.00;99.90
14359;DHT22;7263;49.418;11.064;2024-02-14T12:01:08;12.90;99.90
14359;DHT22;7263;49.418;11.064;2024-02-14T12:03:36;12.80;99.90
14359;DHT22;7263;49.418;11.064;2024-02-14T12:06:05;12.80;99.90
14359;DHT22;7263;49.418;11.064;2024-02-14T12:08:40;12.80;99.90
14359;DHT22;7263;49.418;11.064;2024-02-14T12:11:14;12.80;99.90
14359;DHT22;7263;49.418;11.064;2024-02-14T12:13:49;12.80;99.90
14359;DHT22;7263;49.418;11.064;2024-02-14T12:16:20;12.80;99.90
14359;DHT22;7263;49.418;11.064;2024-02-14T12:18:58;12.80;99.90
14359;DHT22;7263;49.418;11.064;2024-02-14T12:21:35;12.70;99.90
14359;DHT22;7263;49.418;11.064;2024-02-14T12:24:03;12.60;99.90
14359;DHT22;7263;49.418;11.064;2024-02-14T12:26:37;12.50;99.90
14359;DHT22;7263;49.418;11.064;2024-02-14T12:29:07;12.40;99.90
14359;DHT22;7263;49.418;11.064;2024-02-14T12:31:34;12.30;99.90
14359;DHT22;7263;49.418;11.064;2024-02-14T12:34:03;12.30;99.90
14359;DHT22;7263;49.418;11.064;2024-02-14T12:36:33;12.20;99.90
14359;DHT22;7263;49.418;11.064;2024-02-14T12:39:09;12.10;99.90
14359;DHT22;7263;49.418;11.064;2024-02-14T12:41:42;12.20;99.90
14359;DHT22;7263;49.418;11.064;2024-02-14T12:44:08;12.20;99.90
14359;DHT22;7263;49.418;11.064;2024-02-14T12:46:40;12.20;99.90
14359;DHT22;7263;49.418;11.064;2024-02-14T12:49:14;12.30;99.90
14359;DHT22;7263;49.418;11.064;2024-02-14T12:51:43;12.20;99.90
14359;DHT22;7263;49.418;11.064;2024-02-14T12:54:13;12.10;99.90
14359;DHT22;7263;49.418;11.064;2024-02-14T12:56:44;12.10;99.90
14359;DHT22;7263;49.418;11.064;2024-02-14T12:59:17;12.00;99.90
14359;DHT22;7263;49.418;11.064;2024-02-14T13:01:44;12.00;99.90
14359;DHT22;7263;49.418;11.064;2024-02-14T13:04:20;12.00;99.90
14359;DHT22;7263;49.418;11.064;2024-02-14T13:06:50;12.00;99.90
14359;DHT22;7263;49.418;11.064;2024-02-14T13:09:18;11.90;99.90
14359;DHT22;7263;49.418;11.064;2024-02-14T13:11:52;11.90;99.90
14359;DHT22;7263;49.418;11.064;2024-02-14T13:14:28;12.00;99.90
14359;DHT22;7263;49.418;11.064;2024-02-14T13:17:03;12.00;99.90
14359;DHT22;7263;49.418;11.064;2024-02-14T13:19:30;12.10;99.90
14359;DHT22;7263;49.418;11.064;2024-02-14T13:22:04;12.20;99.90
14359;DHT22;7263;49.418;11.064;2024-02-14T13:24:34;12.30;99.90
14359;DHT22;7263;49.418;11.064;2024-02-14T13:27:02;12.30;99.90
14359;DHT22;7263;49.418;11.064;2024-02-14T13:29:29;12.30;99.90
14359;DHT22;7263;49.418;11.064;2024-02-14T13:31:58;12.30;99.90
14359;DHT22;7263;49.418;11.064;2024-02-14T13:34:31;12.40;99.90
14359;DHT22;7263;49.418;11.064;2024-02-14T13:37:01;12.40;99.90
14359;DHT22;7263;49.418;11.064;2024-02-14T13:39:31;12.40;99.90
14359;DHT22;7263;49.418;11.064;2024-02-14T13:42:08;12.30;99.90
14359;DHT22;7263;49.418;11.064;2024-02-14T13:44:35;12.30;99.90
14359;DHT22;7263;49.418;11.064;2024-02-14T13:47:04;12.20;99.90
14359;DHT22;7263;49.418;11.064;2024-02-14T13:49:32;12.20;99.90
14359;DHT22;7263;49.418;11.064;2024-02-14T13:52:02;12.10;99.90
14359;DHT22;7263;49.418;11.064;2024-02-14T13:54:28;12.00;99.90
14359;DHT22;7263;49.418;11.064;2024-02-14T13:57:02;11.90;99.90
14359;DHT22;7263;49.418;11.064;2024-02-14T13:59:29;11.90;99.90
14359;DHT22;7263;49.418;11.064;2024-02-14T14:01:58;11.90;99.90
14359;DHT22;7263;49.418;11.064;2024-02-14T14:04:25;11.90;99.90
14359;DHT22;7263;49.418;11.064;2024-02-14T14:06:52;11.80;99.90
14359;DHT22;7263;49.418;11.064;2024-02-14T14:09:23;11.80;99.90
14359;DHT22;7263;49.418;11.064;2024-02-14T14:12:07;11.80;99.90
14359;DHT22;7263;49.418;11.064;2024-02-14T14:14:48;11.90;99.90
14359;DHT22;7263;49.418;11.064;2024-02-14T14:17:21;11.90;99.90
14359;DHT22;7263;49.418;11.064;2024-02-14T14:19:48;11.90;99.90
14359;DHT22;7263;49.418;11.064;2024-02-14T14:22:24;11.90;99.90
14359;DHT22;7263;49.418;11.064;2024-02-14T14:25:04;11.90;99.90
14359;DHT22;7263;49.418;11.064;2024-02-14T14:27:35;11.80;99.90
14359;DHT22;7263;49.418;11.064;2024-02-14T14:30:01;11.80;99.90
14359;DHT22;7263;49.418;11.064;2024-02-14T14:32:28;11.60;99.90
14359;DHT22;7263;49.418;11.064;2024-02-14T14:34:55;11.60;99.90
14359;DHT22;7263;49.418;11.064;2024-02-14T14:37:25;11.60;99.90
14359;DHT22;7263;49.418;11.064;2024-02-14T14:39:52;11.50;99.90
14359;DHT22;7263;49.418;11.064;2024-02-14T14:42:19;11.50;99.90
14359;DHT22;7263;49.418;11.064;2024-02-14T14:44:48;11.60;99.90
14359;DHT22;7263;49.418;11.064;2024-02-14T14:47:17;11.40;99.90
14359;DHT22;7263;49.418;11.064;2024-02-14T14:49:47;11.40;99.90
14359;DHT22;7263;49.418;11.064;2024-02-14T14:52:17;11.40;99.90
14359;DHT22;7263;49.418;11.064;2024-02-14T14:54:44;11.40;99.90
14359;DHT22;7263;49.418;11.064;2024-02-14T14:57:12;11.40;99.90
14359;DHT22;7263;49.418;11.064;2024-02-14T14:59:40;11.40;99.90
14359;DHT22;7263;49.418;11.064;2024-02-14T15:02:11;11.40;99.90
14359;DHT22;7263;49.418;11.064;2024-02-14T15:04:38;11.40;99.90
14359;DHT22;7263;49.418;11.064;2024-02-14T15:07:05;11.40;99.90
14359;DHT22;7263;49.418;11.064;2024-02-14T15:09:32;11.40;99.90
14359;DHT22;7263;49.418;11.064;2024-02-14T15:12:02;11.40;99.90
14359;DHT22;7263;49.418;11.064;2024-02-14T15:14:33;11.40;99.90
14359;DHT22;7263;49.418;11.064;2024-02-14T15:16:59;11.40;99.90
14359;DHT22;7263;49.418;11.064;2024-02-14T15:19:27;11.40;99.90
14359;DHT22;7263;49.418;11.064;2024-02-14T15:22:00;11.40;99.90
14359;DHT22;7263;49.418;11.064;2024-02-14T15:24:28;11.40;99.90
14359;DHT22;7263;49.418;11.064;2024-02-14T15:27:01;11.40;99.90
14359;DHT22;7263;49.418;11.064;2024-02-14T15:29:35;11.40;99.90
14359;DHT22;7263;49.418;11.064;2024-02-14T15:32:22;11.40;99.90
14359;DHT22;7263;49.418;11.064;2024-02-14T15:35:08;11.40;99.90
14359;DHT22;7263;49.418;11.064;2024-02-14T15:37:37;11.40;99.90
14359;DHT22;7263;49.418;11.064;2024-02-14T15:40:07;11.30;99.90
14359;DHT22;7263;49.418;11.064;2024-02-14T15:42:36;11.30;99.90
14359;DHT22;7263;49.418;11.064;2024-02-14T15:45:06;11.30;99.90
14359;DHT22;7263;49.418;11.064;2024-02-14T15:47:39;11.20;99.90
14359;DHT22;7263;49.418;11.064;2024-02-14T15:50:11;11.20;99.90
14359;DHT22;7263;49.418;11.064;2024-02-14T15:52:46;11.20;99.90
14359;DHT22;7263;49.418;11.064;2024-02-14T15:55:16;11.10;99.90
14359;DHT22;7263;49.418;11.064;2024-02-14T15:57:46;11.10;99.90
14359;DHT22;7263;49.418;11.064;2024-02-14T16:00:14;11.10;99.90
14359;DHT22;7263;49.418;11.064;2024-02-14T16:02:43;11.10;99.90
14359;DHT22;7263;49.418;11.064;2024-02-14T16:05:14;11.00;99.90
14359;DHT22;7263;49.418;11.064;2024-02-14T16:07:41;11.00;99.90